x

Buoy I01 - Eastern Maine Shelf (44034) Wave Buoy

6:04pm - Mon 28th Jul 2014 All times are EDT. -4 hours from GMT.

  • Sig Wave height 3.3ft
  • Peak Period 5s
  • Wind
    11mph, 13mph gusts
  • Sea Temp 54°f
  • 空気 Temp 58°f
  • Sea Pressure 1000.1mb
  • Buoy I01 - Eastern Maine Shelf
  • Buoy I01 - Eastern Maine Shelf

More Historic Weather Station data

Upgrade to MSW Pro to gain access to the past 30 days of data for over 8000 Wavebouys and Weather Stations around the globe.

Join Pro

Comparision Forecast

View Surf forecast
   
Mon 07/28 6:04pm 3.5ft 5s 11 13 mph 1000.1mb 54f 58f
5:04pm 3.5ft 5s 13
mph
1000.4mb 54f 59f
4:04pm 3.5ft 5s 13 16 mph 1001.2mb 54f 59f
3:04pm 2.5ft 5s 11 13 mph 1001.4mb 54f 59f
2:04pm 3ft 5s 9 11 mph 1002mb 54f 58f
1:04pm 3ft 5s 16 18 mph 1003.4mb 55f 59f
12:04pm 2.5ft 5s 13
mph
1004.3mb 53f 58f
11:04am 2.5ft 6s 11 13 mph 1003.8mb 55f 58f
10:04am 2.5ft 5s 11 13 mph 1004.3mb 56f 58f
9:04am 3ft 5s 9
mph
1004.8mb 55f 57f
8:04am 3ft 5s 7
mph
1004.8mb 55f 58f
7:04am 3ft 5s 9
mph
1005.1mb 55f 58f
6:04am 3.5ft 5s 9
mph
1005.2mb 55f 57f
5:04am 3ft 5s 7 9 mph 1004.8mb 55f 57f
12:04am 3.5ft 5s 13 16 mph 1005.1mb 55f 58f
Sun 07/27 11:04pm 3.5ft 5s 11 13 mph 1005.8mb 55f 58f
10:04pm 3.5ft 5s 16 18 mph 1006.3mb 55f 59f
9:04pm 3.5ft 5s 13 16 mph 1007mb 55f 58f
8:04pm 3.5ft 5s 13 16 mph 1007.1mb 55f 58f
7:04pm 4ft 8s 13 16 mph 1007mb 55f 58f
6:04pm 3.5ft 8s 13 16 mph 1007.6mb 55f 58f
5:04pm 3.5ft 5s 11 13 mph 1007.9mb 55f 58f
4:04pm 3.5ft 5s 13 16 mph 1008.3mb 55f 58f
3:04pm 3ft 5s 13 16 mph 1008.4mb 55f 58f
2:04pm 3.5ft 8s 13 16 mph 1008.7mb 55f 59f
1:04pm 3.5ft 8s 16
mph
1008.7mb 55f 59f
12:04pm 3ft 5s 13 16 mph 1008.7mb 55f 60f
11:04am 3.5ft 5s 9 11 mph 1009.4mb 55f 58f
10:04am 3.5ft 5s 11 13 mph 1009.7mb 55f 58f
9:04am 4ft 6s 11
mph
1009.6mb 55f 58f
Sat 07/26 11:04pm 3.5ft 5s 13 18 mph 1010.7mb 55f 58f
10:04pm 2.5ft 5s 16 18 mph 1011mb 55f 59f
9:04pm 3.5ft 8s 13 16 mph 1010.9mb 55f 59f
8:04pm 3ft 8s 13 16 mph 1010.7mb 55f 59f
7:04pm 3ft 8s 13 16 mph 1010.9mb 55f 59f
6:04pm 2.5ft 8s 11 13 mph 1011.1mb 55f 59f
5:04pm 2.5ft 8s 13 16 mph 1011.3mb 55f 59f
2:04pm 3ft 8s 9 11 mph 1012mb 54f 58f
1:04pm 3ft 8s 9 11 mph 1012.5mb 54f 59f
12:04pm 2.5ft 6s 9
mph
1012.5mb 54f 58f
11:04am 3ft 8s 9 11 mph 1012.8mb 54f 58f
10:04am 2.5ft 8s 9 11 mph 1012.7mb 53f 58f
9:04am 2.5ft 8s 9 11 mph 1012.7mb 53f 56f
8:04am 3ft 8s 7 9 mph 1013.1mb 53f 57f
7:04am 3.5ft 8s 7
mph
1013mb 53f 57f
6:04am 3ft 8s 4 7 mph 1012.7mb 54f 57f
5:04am 3ft 8s 7
mph
1012.4mb 53f 56f
4:04am 2.5ft 8s 7 11 mph 1012.2mb 54f 57f
3:04am 2.5ft 11s 2 4 mph 1012mb 54f 56f
2:04am 3ft 11s 7
mph
1012mb 54f 57f
1:04am 3.5ft 11s 9
mph
1012mb 55f 57f
12:04am 3ft 8s 7 9 mph 1012mb 53f 57f
Fri 07/25 11:04pm 3.5ft 11s 9 11 mph 1011.6mb 53f 56f
10:04pm 3ft 11s 7 9 mph 1011.8mb 53f 56f
9:04pm 3ft 8s 9 11 mph 1011.4mb 53f 57f
8:04pm 3ft 8s 11
mph
1011.1mb 53f 57f
7:04pm 3.5ft 8s 11 13 mph 1010.8mb 53f 58f
6:04pm 3.5ft 11s 11 13 mph 1010.5mb 54f 59f
5:04pm 3.5ft 11s 11 13 mph 1010.6mb 53f 58f
4:04pm 1.3ft 3s 13
mph
1010.6mb 53f 59f
3:04pm 2.5ft 8s 13 16 mph 1010.7mb 55f 59f
2:04pm 2ft 8s 9 11 mph 1010.7mb 55f 60f
1:04pm 2.5ft 8s 7 9 mph 1011.2mb 55f 58f
12:04pm 2.5ft 8s 9
mph
1011.4mb 55f 58f
11:04am 2ft 8s 7
mph
1011.6mb 54f 58f
10:04am 2ft 11s 4
mph
1011.7mb 54f 58f
9:04am 2ft 11s 4
mph
1011.7mb 53f 56f
8:04am 2ft 11s 7
mph
1011.8mb 53f 56f
7:04am 1.6ft 8s 7
mph
1011.4mb 53f 56f
6:04am 2ft 8s 9
mph
1011.3mb 53f 57f
5:04am 1.6ft 8s 7 9 mph 1010.7mb 53f 57f
4:04am 1.6ft 11s 7
mph
1010.7mb 53f 57f
3:04am 1.6ft 11s 7 9 mph 1010.3mb 53f 57f
2:04am 1.6ft 8s 9 11 mph 1009.9mb 53f 57f
1:04am 1.3ft 11s 7
mph
1010mb 53f 56f
12:04am 1.3ft 8s 4 7 mph 1010.2mb 53f 56f